createdAt,value
2019-02-19T00:01:54.508Z,9.57
2019-02-19T00:04:24.785Z,10.83
2019-02-19T00:06:55.429Z,12.13
2019-02-19T00:09:25.678Z,8.80
2019-02-19T00:11:56.017Z,14.47
2019-02-19T00:14:26.398Z,16.03
2019-02-19T00:16:56.733Z,11.90
2019-02-19T00:19:27.110Z,10.13
2019-02-19T00:21:59.094Z,9.27
2019-02-19T00:24:29.413Z,8.27
2019-02-19T00:26:59.851Z,9.07
2019-02-19T00:29:30.208Z,9.47
2019-02-19T00:32:03.927Z,10.03
2019-02-19T00:34:34.588Z,9.07
2019-02-19T00:37:06.696Z,9.83
2019-02-19T00:39:37.057Z,12.23
2019-02-19T00:42:08.906Z,10.10
2019-02-19T00:44:39.202Z,8.63
2019-02-19T00:47:09.671Z,9.50
2019-02-19T00:49:41.438Z,10.75
2019-02-19T00:52:14.193Z,11.50
2019-02-19T00:54:44.843Z,13.78
2019-02-19T00:57:15.167Z,10.90
2019-02-19T00:59:45.684Z,13.40
2019-02-19T01:02:19.201Z,10.67
2019-02-19T01:04:53.673Z,11.23
2019-02-19T01:07:24.008Z,10.77
2019-02-19T01:09:54.479Z,9.23
2019-02-19T01:12:24.770Z,7.83
2019-02-19T01:14:55.045Z,8.53
2019-02-19T01:17:25.356Z,11.73
2019-02-19T01:19:55.667Z,10.55
2019-02-19T01:22:25.981Z,12.63
2019-02-19T01:24:56.307Z,10.67
2019-02-19T01:27:26.613Z,9.67
2019-02-19T01:29:57.281Z,9.93
2019-02-19T01:32:27.584Z,7.70
2019-02-19T01:35:00.258Z,9.50
2019-02-19T01:37:30.515Z,11.77
2019-02-19T01:40:02.178Z,9.67
2019-02-19T01:42:32.592Z,10.63
2019-02-19T01:45:03.216Z,11.48
2019-02-19T01:47:33.883Z,11.23
2019-02-19T01:50:04.708Z,11.00
2019-02-19T01:52:35.052Z,11.83
2019-02-19T01:55:06.095Z,12.00
2019-02-19T01:57:36.677Z,11.88
2019-02-19T02:00:07.909Z,14.13
2019-02-19T02:02:38.540Z,13.28
2019-02-19T02:05:09.128Z,13.23
2019-02-19T02:07:39.537Z,13.83
2019-02-19T02:10:09.861Z,13.10
2019-02-19T02:12:40.756Z,15.00
2019-02-19T02:15:11.151Z,14.50
2019-02-19T02:17:41.785Z,15.80
2019-02-19T02:20:12.057Z,13.23
2019-02-19T02:22:44.479Z,15.50
2019-02-19T02:25:15.370Z,18.40
2019-02-19T02:27:47.393Z,16.20
2019-02-19T02:30:17.701Z,14.53
2019-02-19T02:32:48.383Z,16.35
2019-02-19T02:35:18.702Z,13.57
2019-02-19T02:37:51.380Z,14.90
2019-02-19T02:40:21.779Z,21.43
2019-02-19T02:42:52.860Z,15.68
2019-02-19T02:45:23.723Z,18.03
2019-02-19T02:47:54.032Z,20.70
2019-02-19T02:50:24.581Z,21.00
2019-02-19T02:52:54.941Z,19.70
2019-02-19T02:55:25.341Z,19.33
2019-02-19T02:57:55.651Z,22.80
2019-02-19T03:00:27.160Z,19.97
2019-02-19T03:02:57.696Z,23.53
2019-02-19T03:05:28.318Z,27.50
2019-02-19T03:08:02.837Z,24.07
2019-02-19T03:10:33.152Z,25.57
2019-02-19T03:13:03.425Z,27.43
2019-02-19T03:15:33.732Z,35.97
2019-02-19T03:18:04.321Z,29.55
2019-02-19T03:20:34.631Z,29.73
2019-02-19T03:23:05.018Z,30.37
2019-02-19T03:25:35.607Z,24.45
2019-02-19T03:28:05.862Z,25.83
2019-02-19T03:30:37.110Z,23.22
2019-02-19T03:33:07.714Z,27.30
2019-02-19T03:35:39.893Z,24.67
2019-02-19T03:38:10.254Z,26.83
2019-02-19T03:40:40.554Z,27.00
2019-02-19T03:43:10.835Z,29.00
2019-02-19T03:45:41.141Z,29.03
2019-02-19T03:48:11.533Z,40.27
2019-02-19T03:50:41.812Z,40.63
2019-02-19T03:53:12.166Z,35.60
2019-02-19T03:55:42.557Z,32.57
2019-02-19T03:58:14.200Z,29.85
2019-02-19T04:00:44.847Z,28.07
2019-02-19T04:03:15.162Z,27.87
2019-02-19T04:05:45.838Z,23.73
2019-02-19T04:08:17.278Z,29.03
2019-02-19T04:10:47.769Z,27.07
2019-02-19T04:13:19.695Z,27.80
2019-02-19T04:15:49.999Z,25.10
2019-02-19T04:18:21.909Z,28.04
2019-02-19T04:20:52.212Z,24.40
2019-02-19T04:23:23.842Z,28.75
2019-02-19T04:25:54.329Z,26.80
2019-02-19T04:28:24.655Z,29.00
2019-02-19T04:30:55.000Z,27.47
2019-02-19T04:33:25.296Z,28.10
2019-02-19T04:35:55.916Z,29.82
2019-02-19T04:38:26.214Z,32.43
2019-02-19T04:40:56.845Z,31.02
2019-02-19T04:43:27.122Z,26.47
2019-02-19T04:45:57.738Z,31.52
2019-02-19T04:48:28.060Z,25.87
2019-02-19T04:50:58.754Z,29.45
2019-02-19T04:53:29.238Z,29.33
2019-02-19T04:55:59.732Z,30.67
2019-02-19T04:58:30.032Z,25.73
2019-02-19T05:01:00.361Z,28.83
2019-02-19T05:03:30.926Z,27.53
2019-02-19T05:06:02.536Z,28.38
2019-02-19T05:08:32.855Z,29.23
2019-02-19T05:11:03.224Z,25.43
2019-02-19T05:13:33.774Z,27.90
2019-02-19T05:16:04.147Z,26.33
2019-02-19T05:18:34.736Z,27.93
2019-02-19T05:21:06.237Z,31.70
2019-02-19T05:23:39.181Z,27.13
2019-02-19T05:26:11.806Z,29.27
2019-02-19T05:28:42.773Z,29.00
2019-02-19T05:31:13.155Z,31.07
2019-02-19T05:33:44.010Z,29.42
2019-02-19T05:36:14.596Z,33.27
2019-02-19T05:38:45.249Z,30.82
2019-02-19T05:41:15.655Z,36.37
2019-02-19T05:43:47.579Z,32.10
2019-02-19T05:46:18.061Z,33.90
2019-02-19T05:48:48.548Z,31.82
2019-02-19T05:51:18.840Z,34.00
2019-02-19T05:53:49.282Z,31.73
2019-02-19T05:56:19.772Z,32.27
2019-02-19T05:58:51.301Z,34.73
2019-02-19T06:01:21.693Z,33.00
2019-02-19T06:03:52.060Z,37.37
2019-02-19T06:06:22.648Z,36.63
2019-02-19T06:08:52.978Z,35.10
2019-02-19T06:11:23.316Z,31.77
2019-02-19T06:13:53.604Z,34.50
2019-02-19T06:16:24.616Z,35.73
2019-02-19T06:18:54.951Z,33.90
2019-02-19T06:21:25.823Z,32.63
2019-02-19T06:23:56.126Z,37.80
2019-02-19T06:26:26.702Z,37.03
2019-02-19T06:28:57.885Z,35.73
2019-02-19T06:31:28.722Z,35.18
2019-02-19T06:33:59.131Z,38.20
2019-02-19T06:36:30.050Z,35.00
2019-02-19T06:39:00.389Z,33.07
2019-02-19T06:41:32.620Z,41.43
2019-02-19T06:44:02.960Z,36.00
2019-02-19T06:46:35.180Z,39.53
2019-02-19T06:49:05.624Z,35.07
2019-02-19T06:51:37.317Z,33.78
2019-02-19T06:54:07.908Z,34.43
2019-02-19T06:56:39.058Z,30.73
2019-02-19T06:59:09.752Z,30.87
2019-02-19T07:02:19.762Z,30.95
2019-02-19T07:04:56.617Z,28.67
2019-02-19T07:07:27.082Z,30.47
2019-02-19T07:09:58.723Z,29.07
2019-02-19T07:12:29.049Z,34.40
2019-02-19T07:14:59.668Z,29.07
2019-02-19T07:17:29.985Z,29.53
2019-02-19T07:20:00.718Z,24.67
2019-02-19T07:22:31.305Z,26.30
2019-02-19T07:25:01.594Z,28.60
2019-02-19T07:27:32.100Z,26.87
2019-02-19T07:30:02.686Z,29.30
2019-02-19T07:32:33.125Z,28.23
2019-02-19T07:35:03.629Z,23.50
2019-02-19T07:37:33.974Z,27.57
2019-02-19T07:40:04.386Z,23.90
2019-02-19T07:42:35.073Z,23.75
2019-02-19T07:45:05.859Z,37.97
2019-02-19T07:47:36.252Z,25.72
2019-02-19T07:50:07.393Z,24.37
2019-02-19T07:52:39.015Z,25.40
2019-02-19T07:55:09.826Z,24.97
2019-02-19T07:57:42.897Z,20.83
2019-02-19T08:00:13.569Z,21.73
2019-02-19T08:02:44.135Z,23.22
2019-02-19T08:05:14.448Z,29.87
2019-02-19T08:07:45.180Z,27.58
2019-02-19T08:10:15.860Z,26.77
2019-02-19T08:12:47.971Z,31.05
2019-02-19T08:15:18.286Z,28.33
2019-02-19T08:17:49.293Z,25.73
2019-02-19T08:20:19.595Z,24.07
2019-02-19T08:22:52.765Z,28.57
2019-02-19T08:25:24.449Z,25.90
2019-02-19T08:27:55.105Z,25.93
2019-02-19T08:30:25.689Z,23.83
2019-02-19T08:32:55.971Z,23.60
2019-02-19T08:35:26.663Z,20.97
2019-02-19T08:37:56.976Z,21.17
2019-02-19T08:40:27.301Z,20.68
2019-02-19T08:42:57.607Z,21.37
2019-02-19T08:45:30.156Z,21.17
2019-02-19T08:48:00.525Z,19.33
2019-02-19T08:50:31.802Z,18.50
2019-02-19T08:53:02.194Z,19.93
2019-02-19T08:55:34.819Z,17.23
2019-02-19T08:58:05.200Z,19.43
2019-02-19T09:00:36.077Z,15.90
2019-02-19T09:03:06.376Z,17.40
2019-02-19T09:05:36.863Z,15.83
2019-02-19T09:08:07.377Z,16.70
2019-02-19T09:10:39.896Z,16.04
2019-02-19T09:13:10.619Z,17.63
2019-02-19T09:15:41.133Z,16.80
2019-02-19T09:18:11.689Z,15.83
2019-02-19T09:20:42.160Z,13.97
2019-02-19T09:23:12.791Z,14.83
2019-02-19T09:25:44.648Z,14.26
2019-02-19T09:28:15.020Z,14.17
2019-02-19T09:30:45.374Z,12.87
2019-02-19T09:33:16.065Z,11.22
2019-02-19T09:35:46.460Z,17.57
2019-02-19T09:38:16.855Z,12.73
2019-02-19T09:40:47.190Z,11.13
2019-02-19T09:43:17.971Z,11.30
2019-02-19T09:45:48.700Z,15.87
2019-02-19T09:48:19.035Z,12.60
2019-02-19T09:50:49.504Z,11.67
2019-02-19T09:53:20.144Z,12.87
2019-02-19T09:55:50.496Z,10.07
2019-02-19T09:58:21.096Z,11.20
2019-02-19T10:00:51.551Z,12.47
2019-02-19T10:03:22.368Z,11.50
2019-02-19T10:05:52.821Z,11.60
2019-02-19T10:08:26.216Z,15.80
2019-02-19T10:10:56.885Z,12.03
2019-02-19T10:13:27.247Z,12.10
2019-02-19T10:15:57.614Z,9.45
2019-02-19T10:18:28.114Z,8.28
2019-02-19T10:20:59.724Z,8.03
2019-02-19T10:23:30.441Z,9.73
2019-02-19T10:26:01.026Z,8.33
2019-02-19T10:28:31.662Z,9.47
2019-02-19T10:31:02.173Z,6.30
2019-02-19T10:33:32.528Z,11.05
2019-02-19T10:36:03.201Z,13.10
2019-02-19T10:38:33.569Z,15.63
2019-02-19T10:41:04.188Z,17.17
2019-02-19T10:43:36.818Z,12.85
2019-02-19T10:46:07.427Z,14.10
2019-02-19T10:48:37.860Z,13.60
2019-02-19T10:51:08.475Z,11.55
2019-02-19T10:53:39.132Z,10.00
2019-02-19T10:56:09.952Z,10.53
2019-02-19T10:58:40.305Z,12.67
2019-02-19T11:01:11.696Z,9.03
2019-02-19T11:03:42.034Z,11.03
2019-02-19T11:06:12.948Z,13.87
2019-02-19T11:08:43.684Z,12.87
2019-02-19T11:11:14.085Z,9.17
2019-02-19T11:13:47.592Z,12.07
2019-02-19T11:16:18.120Z,12.10
2019-02-19T11:18:48.827Z,14.10
2019-02-19T11:21:20.211Z,12.87
2019-02-19T11:23:51.068Z,14.20
2019-02-19T11:26:21.379Z,10.23
2019-02-19T11:28:51.946Z,10.50
2019-02-19T11:31:22.508Z,13.47
2019-02-19T11:33:53.152Z,8.28
2019-02-19T11:36:23.497Z,9.77
2019-02-19T11:38:55.256Z,13.80
2019-02-19T11:41:25.575Z,11.00
2019-02-19T11:43:56.150Z,10.87
2019-02-19T11:46:26.791Z,9.23
2019-02-19T11:48:58.887Z,9.55
2019-02-19T11:51:29.211Z,12.40
2019-02-19T11:53:59.610Z,11.70
2019-02-19T11:56:30.219Z,11.63
2019-02-19T11:59:01.768Z,16.20
2019-02-19T12:01:32.304Z,10.30
2019-02-19T12:04:03.049Z,12.90
2019-02-19T12:06:33.929Z,14.47
2019-02-19T12:09:05.424Z,9.70
2019-02-19T12:11:35.686Z,9.57
2019-02-19T12:14:06.189Z,12.20
2019-02-19T12:16:36.473Z,11.93
2019-02-19T12:19:06.958Z,14.57
2019-02-19T12:21:37.251Z,6.27
2019-02-19T12:24:07.592Z,14.40
2019-02-19T12:26:37.946Z,11.03
2019-02-19T12:29:10.724Z,8.50
2019-02-19T12:31:41.129Z,12.43
2019-02-19T12:34:11.610Z,10.10
2019-02-19T12:36:42.496Z,11.22
2019-02-19T12:39:12.901Z,11.37
2019-02-19T12:41:43.203Z,10.90
2019-02-19T12:44:13.784Z,7.73
2019-02-19T12:46:44.161Z,10.27
2019-02-19T12:49:16.523Z,8.20
2019-02-19T12:51:47.150Z,10.90
2019-02-19T12:54:17.647Z,9.63
2019-02-19T12:56:48.745Z,15.20
2019-02-19T12:59:19.353Z,12.77
2019-02-19T13:01:49.912Z,9.63
2019-02-19T13:04:20.237Z,9.50
2019-02-19T13:06:50.756Z,9.43
2019-02-19T13:09:21.092Z,7.47
2019-02-19T13:11:51.706Z,5.40
2019-02-19T13:14:22.338Z,7.40
2019-02-19T13:16:52.724Z,8.03
2019-02-19T13:19:23.295Z,11.60
2019-02-19T13:21:55.066Z,9.53
2019-02-19T13:24:26.408Z,8.77
2019-02-19T13:26:56.975Z,6.30
2019-02-19T13:29:27.307Z,6.80
2019-02-19T13:31:58.286Z,7.80
2019-02-19T13:34:30.687Z,7.40
2019-02-19T13:37:01.049Z,8.07
2019-02-19T13:39:32.995Z,6.77
2019-02-19T13:42:03.351Z,8.80
2019-02-19T13:44:33.686Z,5.23
2019-02-19T13:47:05.838Z,8.33
2019-02-19T13:49:39.066Z,7.14
2019-02-19T13:52:32.735Z,8.10
2019-02-19T13:55:07.743Z,15.23
2019-02-19T13:57:38.406Z,8.77
2019-02-19T14:00:10.937Z,7.40
2019-02-19T14:02:42.985Z,7.64
2019-02-19T14:05:13.302Z,3.67
2019-02-19T14:07:45.228Z,6.67
2019-02-19T14:10:15.860Z,7.37
2019-02-19T14:12:46.404Z,8.90
2019-02-19T14:15:43.499Z,7.17
2019-02-19T14:18:16.163Z,8.73
2019-02-19T14:21:08.331Z,8.87
2019-02-19T14:23:59.865Z,11.53
2019-02-19T14:27:01.346Z,11.47
2019-02-19T14:29:49.603Z,9.17
2019-02-19T14:32:32.557Z,5.67
2019-02-19T14:35:37.251Z,8.03
2019-02-19T14:38:28.488Z,5.87
2019-02-19T14:41:25.536Z,5.07
2019-02-19T14:44:14.793Z,5.40
2019-02-19T14:47:02.820Z,8.63
2019-02-19T14:50:10.973Z,7.63
2019-02-19T14:53:00.435Z,5.80
2019-02-19T14:55:59.029Z,11.10
2019-02-19T14:59:06.775Z,8.07
2019-02-19T15:02:01.308Z,8.85
2019-02-19T15:04:54.082Z,8.83
2019-02-19T15:07:43.341Z,6.33
2019-02-19T15:10:28.875Z,8.27
2019-02-19T15:13:15.215Z,13.58
2019-02-19T15:15:57.145Z,7.35
2019-02-19T15:18:49.312Z,12.43
2019-02-19T15:21:37.256Z,8.10
2019-02-19T15:24:32.778Z,9.78
2019-02-19T15:27:12.896Z,9.00
2019-02-19T15:30:01.039Z,8.50
2019-02-19T15:32:42.207Z,10.13
2019-02-19T15:35:25.038Z,12.15
2019-02-19T15:38:03.893Z,8.33
2019-02-19T15:41:11.506Z,9.90
2019-02-19T15:43:50.097Z,8.03
2019-02-19T15:46:39.435Z,11.37
2019-02-19T15:49:48.091Z,9.70
2019-02-19T15:52:33.531Z,11.93
2019-02-19T15:55:23.046Z,8.17
2019-02-19T15:58:11.502Z,11.03
2019-02-19T16:00:46.979Z,14.85
2019-02-19T16:03:34.654Z,13.58
2019-02-19T16:06:26.750Z,14.30
2019-02-19T16:09:15.292Z,13.43
2019-02-19T16:12:04.833Z,13.40
2019-02-19T16:15:09.635Z,15.93
2019-02-19T16:18:05.568Z,13.33
2019-02-19T16:20:46.045Z,15.40
2019-02-19T16:23:38.219Z,17.70
2019-02-19T16:26:27.815Z,15.20
2019-02-19T16:29:15.971Z,15.55
2019-02-19T16:32:15.819Z,22.57
2019-02-19T16:35:08.318Z,16.27
2019-02-19T16:37:46.423Z,12.80
2019-02-19T16:40:35.464Z,15.50
2019-02-19T16:43:34.143Z,15.87
2019-02-19T16:46:30.909Z,12.88
2019-02-19T16:49:29.550Z,15.60
2019-02-19T16:52:24.947Z,12.57
2019-02-19T16:55:29.908Z,14.47
2019-02-19T16:58:21.067Z,13.37
2019-02-19T17:01:00.172Z,11.67
2019-02-19T17:03:48.925Z,20.70
2019-02-19T17:06:40.573Z,16.94
2019-02-19T17:09:30.615Z,17.60
2019-02-19T17:12:29.367Z,15.57
2019-02-19T17:15:15.699Z,14.63
2019-02-19T17:18:14.767Z,11.28
2019-02-19T17:21:02.832Z,10.33
2019-02-19T17:23:43.740Z,10.33
2019-02-19T17:26:18.643Z,15.20
2019-02-19T17:28:57.017Z,17.07
2019-02-19T17:31:36.770Z,13.07
2019-02-19T17:34:30.202Z,18.20
2019-02-19T17:37:19.513Z,18.07
2019-02-19T17:39:59.223Z,15.40
2019-02-19T17:43:06.770Z,21.97
2019-02-19T17:45:59.080Z,18.50
2019-02-19T17:48:48.735Z,15.43
2019-02-19T17:51:41.356Z,16.00
2019-02-19T17:54:27.940Z,18.80
2019-02-19T17:57:17.482Z,15.83
2019-02-19T18:00:05.841Z,17.03
2019-02-19T18:02:48.442Z,13.17
2019-02-19T18:05:49.762Z,14.73
2019-02-19T18:08:42.437Z,12.50
2019-02-19T18:11:34.008Z,13.58
2019-02-19T18:14:20.939Z,21.87
2019-02-19T18:17:07.079Z,14.50
2019-02-19T18:19:37.885Z,11.75
2019-02-19T18:22:08.279Z,12.37
2019-02-19T18:24:39.019Z,14.17
2019-02-19T18:27:09.491Z,14.53
2019-02-19T18:29:40.174Z,13.27
2019-02-19T18:32:10.750Z,18.27
2019-02-19T18:34:41.134Z,18.75
2019-02-19T18:37:11.722Z,15.13
2019-02-19T18:39:42.409Z,20.45
2019-02-19T18:42:14.160Z,14.43
2019-02-19T18:44:48.971Z,17.57
2019-02-19T18:47:19.378Z,15.73
2019-02-19T18:49:51.427Z,18.17
2019-02-19T18:52:22.076Z,15.40
2019-02-19T18:54:54.047Z,12.23
2019-02-19T18:57:26.133Z,17.77
2019-02-19T18:59:56.994Z,11.05
2019-02-19T19:02:27.425Z,13.60
2019-02-19T19:04:57.931Z,12.93
2019-02-19T19:07:28.343Z,17.33
2019-02-19T19:09:59.022Z,15.77
2019-02-19T19:12:29.422Z,15.43
2019-02-19T19:14:59.992Z,16.77
2019-02-19T19:17:30.497Z,17.93
2019-02-19T19:20:01.224Z,15.03
2019-02-19T19:22:31.973Z,20.30
2019-02-19T19:25:02.664Z,16.85
2019-02-19T19:27:33.434Z,15.77
2019-02-19T19:30:03.873Z,12.57
2019-02-19T19:32:34.680Z,15.85
2019-02-19T19:35:05.319Z,16.17
2019-02-19T19:37:37.633Z,21.23
2019-02-19T19:40:09.131Z,18.40
2019-02-19T19:42:39.772Z,20.60
2019-02-19T19:45:10.524Z,29.07
2019-02-19T19:47:41.242Z,23.10
2019-02-19T19:50:11.733Z,30.50
2019-02-19T19:52:42.143Z,32.35
2019-02-19T19:55:12.677Z,27.83
2019-02-19T19:57:45.119Z,29.65
2019-02-19T20:00:15.603Z,31.37
2019-02-19T20:02:46.288Z,24.63
2019-02-19T20:05:16.618Z,24.73
2019-02-19T20:07:47.041Z,27.80
2019-02-19T20:10:17.741Z,25.43
2019-02-19T20:12:48.205Z,26.87
2019-02-19T20:15:28.308Z,21.34
2019-02-19T20:17:59.349Z,27.37
2019-02-19T20:20:31.897Z,29.95
2019-02-19T20:23:04.351Z,24.77
2019-02-19T20:25:34.732Z,21.47
2019-02-19T20:28:05.095Z,16.33
2019-02-19T20:30:35.658Z,22.20
2019-02-19T20:33:06.349Z,16.77
2019-02-19T20:35:36.688Z,17.07
2019-02-19T20:38:06.998Z,15.93
2019-02-19T20:40:37.671Z,17.20
2019-02-19T20:43:08.123Z,19.43
2019-02-19T20:45:38.886Z,16.27
2019-02-19T20:48:09.293Z,15.60
2019-02-19T20:50:40.375Z,22.15
2019-02-19T20:53:10.975Z,23.90
2019-02-19T20:55:43.508Z,20.76
2019-02-19T20:58:13.917Z,20.53
2019-02-19T21:00:45.985Z,25.43
2019-02-19T21:03:16.386Z,18.37
2019-02-19T21:05:48.932Z,19.40
2019-02-19T21:08:19.425Z,17.73
2019-02-19T21:10:50.995Z,23.67
2019-02-19T21:13:21.601Z,19.67
2019-02-19T21:15:54.430Z,21.27
2019-02-19T21:18:24.876Z,21.33
2019-02-19T21:20:56.601Z,18.77
2019-02-19T21:23:27.194Z,17.87
2019-02-19T21:25:57.867Z,19.67
2019-02-19T21:28:28.616Z,20.97
2019-02-19T21:31:00.877Z,19.07
2019-02-19T21:33:31.291Z,27.47
2019-02-19T21:36:01.754Z,18.10
2019-02-19T21:38:32.561Z,15.15
2019-02-19T21:41:02.994Z,13.87
2019-02-19T21:43:33.691Z,17.67
2019-02-19T21:46:04.046Z,20.20
2019-02-19T21:48:35.023Z,23.07
2019-02-19T21:51:05.613Z,21.13
2019-02-19T21:53:36.366Z,16.87
2019-02-19T21:56:06.713Z,15.40
2019-02-19T22:01:13.681Z,17.63
2019-02-19T22:03:44.029Z,17.33
2019-02-19T22:06:14.415Z,13.87
2019-02-19T22:08:45.353Z,17.57
2019-02-19T22:11:16.257Z,21.62
2019-02-19T22:13:48.775Z,14.40
2019-02-19T22:16:27.422Z,16.47
2019-02-19T22:19:00.327Z,16.82
2019-02-19T22:21:47.377Z,15.87
2019-02-19T22:24:54.750Z,15.27
2019-02-19T22:27:26.055Z,19.03
2019-02-19T22:29:56.557Z,17.67
2019-02-19T22:32:27.537Z,10.95
2019-02-19T22:34:59.762Z,12.90
2019-02-19T22:37:30.167Z,13.27
2019-02-19T22:40:00.645Z,10.90
2019-02-19T22:42:32.789Z,13.97
2019-02-19T22:45:03.481Z,14.93
2019-02-19T22:47:34.167Z,12.70
2019-02-19T22:50:08.295Z,15.05
2019-02-19T22:52:38.918Z,13.43
2019-02-19T22:55:21.663Z,16.60
2019-02-19T22:57:52.298Z,18.85
2019-02-19T23:00:44.365Z,22.97
2019-02-19T23:03:17.758Z,17.10
2019-02-19T23:05:48.254Z,17.77
2019-02-19T23:08:18.662Z,13.53
2019-02-19T23:10:49.431Z,13.93
2019-02-19T23:13:21.386Z,18.73
2019-02-19T23:15:52.350Z,17.02
2019-02-19T23:18:22.808Z,15.23
2019-02-19T23:21:02.342Z,19.33
2019-02-19T23:23:34.297Z,23.70
2019-02-19T23:26:04.701Z,15.48
2019-02-19T23:28:35.238Z,17.73
2019-02-19T23:31:07.539Z,17.57
2019-02-19T23:33:39.806Z,18.83
2019-02-19T23:36:38.664Z,18.02
2019-02-19T23:39:12.136Z,17.57
2019-02-19T23:41:42.978Z,15.20
2019-02-19T23:44:18.659Z,15.27
2019-02-19T23:46:51.451Z,19.60
2019-02-19T23:49:22.307Z,18.87
2019-02-19T23:52:01.358Z,13.63
2019-02-19T23:54:34.203Z,17.97
2019-02-19T23:57:04.578Z,17.37
2019-02-19T23:59:37.917Z,19.17
